createdAt,value
2018-07-11T00:01:05.072Z,996.48
2018-07-11T00:02:15.097Z,996.49
2018-07-11T00:03:24.857Z,996.46
2018-07-11T00:04:34.872Z,996.48
2018-07-11T00:05:44.873Z,996.46
2018-07-11T00:06:54.882Z,996.46
2018-07-11T00:08:04.897Z,996.42
2018-07-11T00:09:14.667Z,996.41
2018-07-11T00:10:24.411Z,996.42
2018-07-11T00:11:34.201Z,996.4
2018-07-11T00:12:44.274Z,996.44
2018-07-11T00:13:54.297Z,996.39
2018-07-11T00:15:04.386Z,996.38
2018-07-11T00:16:14.429Z,996.38
2018-07-11T00:17:24.194Z,996.35
2018-07-11T00:18:33.952Z,996.31
2018-07-11T00:19:43.966Z,996.24
2018-07-11T00:20:53.993Z,996.13
2018-07-11T00:22:03.755Z,996.11
2018-07-11T00:23:13.769Z,996.07
2018-07-11T00:24:23.782Z,996.07
2018-07-11T00:25:33.555Z,996.06
2018-07-11T00:26:43.362Z,996.12
2018-07-11T00:27:53.362Z,996.12
2018-07-11T00:29:03.365Z,996.13
2018-07-11T00:30:13.460Z,996.08
2018-07-11T00:31:22.954Z,996.09
2018-07-11T00:32:32.972Z,996.04
2018-07-11T00:33:42.982Z,996.02
2018-07-11T00:34:52.993Z,996.01
2018-07-11T00:36:03.005Z,995.97
2018-07-11T00:37:13.202Z,995.96
2018-07-11T00:38:24.077Z,995.97
2018-07-11T00:39:33.834Z,995.95
2018-07-11T00:40:43.841Z,995.95
2018-07-11T00:41:53.618Z,995.95
2018-07-11T00:43:03.642Z,995.97
2018-07-11T00:44:13.657Z,995.97
2018-07-11T00:45:23.660Z,995.97
2018-07-11T00:46:33.683Z,995.98
2018-07-11T00:47:43.684Z,996
2018-07-11T00:48:53.463Z,996.05
2018-07-11T00:50:03.525Z,996.06
2018-07-11T00:51:13.523Z,996.08
2018-07-11T00:52:23.544Z,996.1
2018-07-11T00:53:33.303Z,996.08
2018-07-11T00:54:43.316Z,996.08
2018-07-11T00:55:53.315Z,996.07
2018-07-11T00:57:03.380Z,996.04
2018-07-11T00:58:13.146Z,996.01
2018-07-11T00:59:23.265Z,995.97
2018-07-11T01:00:33.012Z,995.95
2018-07-11T01:01:43.028Z,995.95
2018-07-11T01:02:52.755Z,995.98
2018-07-11T01:04:02.507Z,995.94
2018-07-11T01:05:12.304Z,995.97
2018-07-11T01:06:22.068Z,995.91
2018-07-11T01:07:32.082Z,995.88
2018-07-11T01:08:42.087Z,995.85
2018-07-11T01:09:52.101Z,995.84
2018-07-11T01:11:02.131Z,995.82
2018-07-11T01:12:12.137Z,995.77
2018-07-11T01:13:22.155Z,995.83
2018-07-11T01:14:32.149Z,995.86
2018-07-11T01:15:42.173Z,995.83
2018-07-11T01:16:52.193Z,995.83
2018-07-11T01:18:02.203Z,995.84
2018-07-11T01:19:12.213Z,995.8
2018-07-11T01:20:22.221Z,995.81
2018-07-11T01:21:31.722Z,995.81
2018-07-11T01:22:41.719Z,995.79
2018-07-11T01:23:51.727Z,995.74
2018-07-11T01:25:01.733Z,995.76
2018-07-11T01:26:11.739Z,995.74
2018-07-11T01:27:21.746Z,995.68
2018-07-11T01:28:31.542Z,995.69
2018-07-11T01:29:41.296Z,995.67
2018-07-11T01:30:51.036Z,995.72
2018-07-11T01:32:01.031Z,995.69
2018-07-11T01:33:11.030Z,995.7
2018-07-11T01:34:20.793Z,995.69
2018-07-11T01:35:30.547Z,995.69
2018-07-11T01:36:40.300Z,995.7
2018-07-11T01:37:50.316Z,995.71
2018-07-11T01:39:00.335Z,995.77
2018-07-11T01:40:10.098Z,995.73
2018-07-11T01:41:20.098Z,995.79
2018-07-11T01:42:29.848Z,995.77
2018-07-11T01:43:39.595Z,995.79
2018-07-11T01:44:49.352Z,995.82
2018-07-11T01:45:59.101Z,995.81
2018-07-11T01:47:08.855Z,995.8
2018-07-11T01:48:18.863Z,995.85
2018-07-11T01:49:28.880Z,995.83
2018-07-11T01:50:38.631Z,995.81
2018-07-11T01:51:48.664Z,995.85
2018-07-11T01:52:58.686Z,995.89
2018-07-11T01:54:08.684Z,995.91
2018-07-11T01:55:18.708Z,995.88
2018-07-11T01:56:28.519Z,995.88
2018-07-11T01:57:38.533Z,995.96
2018-07-11T01:58:48.551Z,995.95
2018-07-11T01:59:58.548Z,995.97
2018-07-11T02:01:08.560Z,995.96
2018-07-11T02:02:18.564Z,996
2018-07-11T02:03:28.574Z,995.96
2018-07-11T02:04:38.578Z,995.9
2018-07-11T02:05:48.585Z,995.89
2018-07-11T02:06:58.319Z,995.87
2018-07-11T02:08:08.064Z,995.87
2018-07-11T02:09:18.065Z,995.84
2018-07-11T02:10:27.585Z,995.83
2018-07-11T02:11:37.585Z,995.82
2018-07-11T02:12:47.346Z,995.85
2018-07-11T02:13:57.374Z,995.83
2018-07-11T02:15:07.150Z,995.85
2018-07-11T02:16:17.160Z,995.84
2018-07-11T02:17:27.167Z,995.88
2018-07-11T02:18:37.191Z,995.91
2018-07-11T02:19:46.693Z,995.9
2018-07-11T02:20:56.444Z,995.85
2018-07-11T02:22:06.186Z,995.87
2018-07-11T02:23:15.938Z,995.84
2018-07-11T02:24:25.944Z,995.86
2018-07-11T02:25:35.936Z,995.84
2018-07-11T02:26:45.968Z,995.82
2018-07-11T02:27:55.719Z,995.8
2018-07-11T02:29:05.470Z,995.81
2018-07-11T02:30:15.500Z,995.84
2018-07-11T02:31:25.537Z,995.84
2018-07-11T02:32:35.572Z,995.81
2018-07-11T02:33:45.327Z,995.8
2018-07-11T02:34:55.341Z,995.81
2018-07-11T02:36:05.343Z,995.82
2018-07-11T02:37:15.151Z,995.83
2018-07-11T02:38:25.167Z,995.81
2018-07-11T02:39:34.906Z,995.81
2018-07-11T02:40:44.940Z,995.75
2018-07-11T02:41:54.697Z,995.74
2018-07-11T02:43:04.715Z,995.68
2018-07-11T02:44:14.464Z,995.68
2018-07-11T02:45:24.225Z,995.65
2018-07-11T02:46:34.242Z,995.64
2018-07-11T02:47:43.747Z,995.64
2018-07-11T02:48:53.490Z,995.65
2018-07-11T02:50:03.528Z,995.66
2018-07-11T02:51:13.524Z,995.67
2018-07-11T02:52:23.535Z,995.74
2018-07-11T02:53:33.546Z,995.77
2018-07-11T02:54:43.553Z,995.74
2018-07-11T02:55:53.572Z,995.76
2018-07-11T02:57:03.640Z,995.74
2018-07-11T02:58:13.667Z,995.8
2018-07-11T02:59:23.681Z,995.74
2018-07-11T03:00:33.435Z,995.78
2018-07-11T03:01:43.455Z,995.79
2018-07-11T03:02:53.462Z,995.8
2018-07-11T03:35:48.557Z,996.08
2018-07-11T03:36:58.555Z,996.04
2018-07-11T03:38:08.286Z,996.02
2018-07-11T03:39:18.329Z,996.01
2018-07-11T03:40:28.387Z,996.01
2018-07-11T03:41:38.141Z,996.05
2018-07-11T03:42:48.150Z,996.04
2018-07-11T03:43:58.167Z,996.04
2018-07-11T03:45:07.914Z,996.05
2018-07-11T03:46:17.911Z,996.07
2018-07-11T03:47:27.958Z,996.03
2018-07-11T03:48:37.969Z,996.03
2018-07-11T03:49:47.727Z,996.02
2018-07-11T03:50:57.760Z,996.02
2018-07-11T03:52:07.769Z,996.04
2018-07-11T03:53:17.786Z,996.05
2018-07-11T03:54:27.787Z,996.06
2018-07-11T03:55:37.785Z,996.04
2018-07-11T03:56:47.808Z,996.09
2018-07-11T03:57:57.799Z,996.1
2018-07-11T03:59:07.797Z,996.08
2018-07-11T04:00:17.824Z,996.12
2018-07-11T04:01:27.579Z,996.15
2018-07-11T04:02:37.621Z,996.15
2018-07-11T04:03:47.645Z,996.15
2018-07-11T04:04:57.796Z,996.2
2018-07-11T04:06:07.581Z,996.18
2018-07-11T04:07:17.604Z,996.16
2018-07-11T04:08:27.347Z,996.16
2018-07-11T04:09:37.094Z,996.12
2018-07-11T04:10:47.113Z,996.16
2018-07-11T04:11:57.108Z,996.12
2018-07-11T04:13:07.125Z,996.13
2018-07-11T04:14:17.136Z,996.1
2018-07-11T04:15:27.150Z,996.11
2018-07-11T04:16:37.157Z,996.06
2018-07-11T04:17:47.179Z,996.09
2018-07-11T04:18:57.184Z,996.09
2018-07-11T04:20:06.825Z,996.05
2018-07-11T04:21:16.570Z,996.08
2018-07-11T04:22:26.316Z,996.06
2018-07-11T04:23:36.329Z,996.09
2018-07-11T04:24:46.359Z,996.09
2018-07-11T04:25:56.105Z,996.1
2018-07-11T04:27:06.115Z,996.11
2018-07-11T04:28:16.117Z,996.13
2018-07-11T04:29:25.863Z,996.15
2018-07-11T04:30:35.893Z,996.16
2018-07-11T04:31:45.882Z,996.14
2018-07-11T04:32:55.635Z,996.17
2018-07-11T04:34:05.657Z,996.13
2018-07-11T04:35:15.683Z,996.08
2018-07-11T04:36:25.697Z,996.14
2018-07-11T04:37:35.696Z,996.17
2018-07-11T04:38:45.707Z,996.14
2018-07-11T04:39:55.754Z,996.18
2018-07-11T04:41:05.741Z,996.19
2018-07-11T04:42:15.763Z,996.22
2018-07-11T04:43:25.881Z,996.22
2018-07-11T04:44:35.638Z,996.23
2018-07-11T04:45:45.404Z,996.27
2018-07-11T04:46:55.403Z,996.3
2018-07-11T04:48:05.429Z,996.36
2018-07-11T04:49:15.424Z,996.34
2018-07-11T04:50:25.174Z,996.36
2018-07-11T04:51:34.673Z,996.37
2018-07-11T04:52:44.481Z,996.36
2018-07-11T04:53:54.796Z,996.39
2018-07-11T04:55:04.837Z,996.36
2018-07-11T04:56:14.973Z,996.34
2018-07-11T04:57:24.971Z,996.38
2018-07-11T04:58:34.981Z,996.38
2018-07-11T04:59:45.102Z,996.41
2018-07-11T05:00:55.107Z,996.34
2018-07-11T05:02:05.168Z,996.4
2018-07-11T05:03:15.174Z,996.37
2018-07-11T05:04:25.180Z,996.36
2018-07-11T05:05:34.938Z,996.32
2018-07-11T05:06:44.693Z,996.36
2018-07-11T05:07:54.462Z,996.36
2018-07-11T05:09:04.208Z,996.36
2018-07-11T05:10:13.953Z,996.41
2018-07-11T05:11:23.708Z,996.41
2018-07-11T05:12:33.723Z,996.39
2018-07-11T05:13:43.461Z,996.43
2018-07-11T05:14:53.215Z,996.45
2018-07-11T05:16:03.226Z,996.51
2018-07-11T05:17:13.506Z,996.51
2018-07-11T05:18:23.533Z,996.54
2018-07-11T05:19:33.299Z,996.57
2018-07-11T05:20:43.096Z,996.51
2018-07-11T05:21:53.132Z,996.45
2018-07-11T05:23:02.898Z,996.49
2018-07-11T05:24:12.691Z,996.44
2018-07-11T05:25:22.717Z,996.44
2018-07-11T05:26:32.719Z,996.43
2018-07-11T05:27:42.245Z,996.38
2018-07-11T05:28:52.637Z,996.35
2018-07-11T05:30:02.403Z,996.35
2018-07-11T05:31:12.403Z,996.33
2018-07-11T05:32:22.413Z,996.33
2018-07-11T05:33:32.412Z,996.33
2018-07-11T05:34:42.434Z,996.33
2018-07-11T05:35:52.428Z,996.33
2018-07-11T05:37:01.667Z,996.35
2018-07-11T05:38:11.734Z,996.32
2018-07-11T05:39:21.758Z,996.3
2018-07-11T05:40:31.770Z,996.33
2018-07-11T05:41:41.781Z,996.34
2018-07-11T05:42:51.776Z,996.33
2018-07-11T05:44:01.777Z,996.38
2018-07-11T05:45:11.773Z,996.4
2018-07-11T05:46:21.542Z,996.41
2018-07-11T05:47:31.551Z,996.41
2018-07-11T05:48:41.576Z,996.4
2018-07-11T05:49:51.630Z,996.44
2018-07-11T05:51:01.645Z,996.43
2018-07-11T05:52:11.415Z,996.45
2018-07-11T05:53:21.302Z,996.47
2018-07-11T05:54:31.046Z,996.52
2018-07-11T05:55:41.112Z,996.52
2018-07-11T05:56:51.101Z,996.58
2018-07-11T05:58:00.584Z,996.56
2018-07-11T05:59:10.098Z,996.63
2018-07-11T06:00:19.841Z,996.68
2018-07-11T06:01:29.400Z,996.63
2018-07-11T06:02:39.759Z,996.67
2018-07-11T06:03:50.126Z,996.67
2018-07-11T06:05:00.134Z,996.65
2018-07-11T06:06:10.138Z,996.62
2018-07-11T06:07:19.647Z,996.62
2018-07-11T06:08:29.652Z,996.63
2018-07-11T06:09:39.658Z,996.62
2018-07-11T06:10:49.418Z,996.65
2018-07-11T06:11:59.429Z,996.66
2018-07-11T06:13:09.193Z,996.69
2018-07-11T06:14:19.421Z,996.7
2018-07-11T06:15:29.429Z,996.68
2018-07-11T06:16:39.178Z,996.76
2018-07-11T06:17:48.940Z,996.76
2018-07-11T06:18:58.681Z,996.78
2018-07-11T06:20:08.431Z,996.85
2018-07-11T06:21:18.365Z,996.89
2018-07-11T06:22:28.130Z,996.91
2018-07-11T06:23:38.159Z,996.87
2018-07-11T06:24:47.655Z,996.88
2018-07-11T06:25:57.401Z,996.9
2018-07-11T06:27:07.154Z,996.9
2018-07-11T06:28:16.898Z,996.96
2018-07-11T06:29:26.921Z,996.95
2018-07-11T06:30:36.737Z,996.93
2018-07-11T06:31:46.502Z,996.91
2018-07-11T06:32:56.513Z,996.93
2018-07-11T06:34:06.537Z,996.9
2018-07-11T06:35:16.550Z,996.89
2018-07-11T06:36:26.592Z,996.92
2018-07-11T06:37:36.592Z,996.91
2018-07-11T06:38:46.636Z,996.93
2018-07-11T06:39:56.659Z,996.88
2018-07-11T06:41:06.659Z,996.89
2018-07-11T06:42:16.667Z,996.9
2018-07-11T06:43:26.689Z,996.89
2018-07-11T06:44:36.444Z,996.91
2018-07-11T06:45:46.456Z,996.92
2018-07-11T06:46:56.210Z,996.91
2018-07-11T06:48:06.206Z,996.89
2018-07-11T06:49:16.213Z,996.91
2018-07-11T06:50:26.226Z,996.91
2018-07-11T06:51:35.985Z,996.92
2018-07-11T06:52:46.002Z,996.94
2018-07-11T06:53:55.784Z,996.93
2018-07-11T06:55:05.802Z,996.98
2018-07-11T06:56:15.543Z,997
2018-07-11T06:57:25.549Z,996.99
2018-07-11T06:58:35.816Z,996.96
2018-07-11T06:59:45.575Z,996.92
2018-07-11T07:00:55.328Z,996.86
2018-07-11T07:02:05.366Z,996.82
2018-07-11T07:03:15.149Z,996.9
2018-07-11T07:04:25.216Z,996.85
2018-07-11T07:05:35.236Z,996.86
2018-07-11T07:06:45.252Z,996.85
2018-07-11T07:07:54.518Z,996.89
2018-07-11T07:09:04.279Z,996.86
2018-07-11T07:10:14.054Z,996.95
2018-07-11T07:11:23.808Z,996.97
2018-07-11T07:12:33.832Z,996.99
2018-07-11T07:13:43.847Z,997
2018-07-11T07:14:53.865Z,997.03
2018-07-11T07:16:03.643Z,997.06
2018-07-11T07:17:13.657Z,997.07
2018-07-11T07:18:23.432Z,997.05
2018-07-11T07:19:33.443Z,997.07
2018-07-11T07:20:43.201Z,997.1
2018-07-11T07:21:53.208Z,997.11
2018-07-11T07:23:03.210Z,997.1
2018-07-11T07:24:12.960Z,997.12
2018-07-11T07:25:22.991Z,997.11
2018-07-11T07:26:33.009Z,997.09
2018-07-11T07:27:42.819Z,997.07
2018-07-11T07:28:52.570Z,997.1
2018-07-11T07:30:02.698Z,997.14
2018-07-11T07:31:12.719Z,997.11
2018-07-11T07:32:22.472Z,997.07
2018-07-11T07:33:32.496Z,997.09
2018-07-11T07:34:42.567Z,997.07
2018-07-11T07:35:52.620Z,997.17
2018-07-11T07:37:02.638Z,997.06
2018-07-11T07:38:12.395Z,997.1
2018-07-11T07:39:22.200Z,997.11
2018-07-11T07:40:32.218Z,997.14
2018-07-11T07:41:41.990Z,997.12
2018-07-11T07:42:52.000Z,997.14
2018-07-11T07:44:02.013Z,997.03
2018-07-11T07:45:12.039Z,997.04
2018-07-11T07:46:22.071Z,997.05
2018-07-11T07:47:32.095Z,997.04
2018-07-11T07:48:42.104Z,997.03
2018-07-11T07:49:51.870Z,997.02
2018-07-11T07:51:01.875Z,996.99
2018-07-11T07:52:11.909Z,997.01
2018-07-11T07:53:21.912Z,996.99
2018-07-11T07:54:31.665Z,997.01
2018-07-11T07:55:41.408Z,996.97
2018-07-11T07:56:51.168Z,996.99
2018-07-11T07:58:00.931Z,997
2018-07-11T07:59:10.950Z,997.02
2018-07-11T08:00:20.707Z,997.05
2018-07-11T08:01:31.002Z,997.04
2018-07-11T08:02:41.002Z,997.07
2018-07-11T08:03:50.764Z,997.04
2018-07-11T08:05:00.765Z,997.05
2018-07-11T08:06:10.783Z,997.04
2018-07-11T08:07:20.787Z,997.04
2018-07-11T08:08:30.614Z,997.1
2018-07-11T08:09:40.641Z,997.14
2018-07-11T08:10:50.653Z,997.11
2018-07-11T08:12:00.420Z,997.13
2018-07-11T08:13:10.433Z,997.11
2018-07-11T08:14:20.453Z,997.11
2018-07-11T08:15:30.210Z,997.09
2018-07-11T08:16:39.963Z,997.08
2018-07-11T08:17:49.970Z,997.16
2018-07-11T08:18:59.978Z,997.11
2018-07-11T08:20:09.988Z,997.13
2018-07-11T08:21:19.765Z,997.03
2018-07-11T08:22:30.175Z,997.05
2018-07-11T08:23:39.936Z,997.03
2018-07-11T08:24:49.941Z,997.02
2018-07-11T08:25:59.966Z,997.04
2018-07-11T08:27:10.026Z,997.03
2018-07-11T08:28:20.453Z,996.99
2018-07-11T08:29:30.480Z,997.04
2018-07-11T08:30:40.491Z,997.03
2018-07-11T08:31:49.998Z,996.99
2018-07-11T08:33:00.021Z,996.95
2018-07-11T08:34:10.037Z,996.96
2018-07-11T08:35:19.789Z,996.98
2018-07-11T08:36:29.545Z,996.95
2018-07-11T08:37:39.573Z,996.94
2018-07-11T08:38:49.334Z,996.96
2018-07-11T08:39:59.374Z,996.94
2018-07-11T08:41:09.134Z,997.01
2018-07-11T08:42:19.200Z,996.99
2018-07-11T08:43:29.211Z,997.05
2018-07-11T08:44:39.268Z,997.04
2018-07-11T08:45:49.024Z,997.02
2018-07-11T08:46:59.048Z,997.02
2018-07-11T08:48:09.145Z,997
2018-07-11T08:49:19.315Z,996.98
2018-07-11T08:50:28.815Z,997
2018-07-11T08:51:38.563Z,997.03
2018-07-11T08:52:48.573Z,997.04
2018-07-11T08:53:58.592Z,996.98
2018-07-11T08:55:08.852Z,997.02
2018-07-11T08:56:19.163Z,997.04
2018-07-11T08:57:29.187Z,997.07
2018-07-11T08:58:39.203Z,997.07
2018-07-11T08:59:49.217Z,997.05
2018-07-11T09:00:59.231Z,997.09
2018-07-11T09:02:09.089Z,997.1
2018-07-11T09:03:19.106Z,997.05
2018-07-11T09:04:29.142Z,997.05
2018-07-11T09:05:38.904Z,997.01
2018-07-11T09:06:48.923Z,997
2018-07-11T09:07:58.760Z,996.99
2018-07-11T09:09:08.568Z,996.98
2018-07-11T09:10:18.320Z,996.99
2018-07-11T09:11:28.155Z,997
2018-07-11T09:12:37.918Z,996.97
2018-07-11T09:13:47.975Z,996.98
2018-07-11T09:14:57.733Z,996.97
2018-07-11T09:16:07.757Z,996.93
2018-07-11T09:17:17.769Z,996.95
2018-07-11T09:18:27.783Z,996.93
2018-07-11T09:19:37.814Z,996.95
2018-07-11T09:20:47.831Z,996.9
2018-07-11T09:21:57.320Z,996.96
2018-07-11T09:23:07.085Z,996.97
2018-07-11T09:24:17.153Z,996.94
2018-07-11T09:25:27.256Z,996.9
2018-07-11T09:26:37.287Z,996.91
2018-07-11T09:27:47.292Z,996.91
2018-07-11T09:28:57.049Z,996.91
2018-07-11T09:30:07.061Z,996.93
2018-07-11T09:31:17.085Z,996.89
2018-07-11T09:32:27.068Z,996.89
2018-07-11T09:33:37.081Z,996.89
2018-07-11T09:34:47.089Z,996.91
2018-07-11T09:35:56.841Z,996.88
2018-07-11T09:37:06.875Z,996.94
2018-07-11T09:38:16.892Z,996.93
2018-07-11T09:39:26.398Z,996.93
2018-07-11T09:40:36.149Z,996.94
2018-07-11T09:41:46.173Z,996.94
2018-07-11T09:42:56.193Z,996.92
2018-07-11T09:44:06.201Z,996.92
2018-07-11T09:45:16.228Z,996.86
2018-07-11T09:46:26.328Z,996.88
2018-07-11T09:47:36.085Z,996.88
2018-07-11T09:48:45.888Z,996.87
2018-07-11T09:49:55.123Z,996.87
2018-07-11T09:51:05.147Z,996.88
2018-07-11T09:52:15.197Z,996.88
2018-07-11T09:53:25.615Z,996.9
2018-07-11T09:54:35.377Z,996.93
2018-07-11T09:55:45.402Z,996.89
2018-07-11T09:56:55.425Z,996.89
2018-07-11T09:58:05.170Z,996.91
2018-07-11T09:59:15.193Z,996.91
2018-07-11T10:00:25.252Z,996.92
2018-07-11T10:01:35.266Z,996.96
2018-07-11T10:02:45.048Z,996.94
2018-07-11T10:03:54.275Z,996.96
2018-07-11T10:05:04.302Z,996.97
2018-07-11T10:06:14.497Z,996.95
2018-07-11T10:07:24.021Z,996.95
2018-07-11T10:08:34.038Z,996.93
2018-07-11T10:09:44.040Z,996.89
2018-07-11T10:10:54.061Z,996.93
2018-07-11T10:12:04.151Z,996.91
2018-07-11T10:13:13.603Z,996.93
2018-07-11T10:14:23.363Z,996.9
2018-07-11T10:15:33.382Z,996.9
2018-07-11T10:16:43.401Z,996.9
2018-07-11T10:17:53.461Z,996.9
2018-07-11T10:19:03.467Z,996.95
2018-07-11T10:20:13.481Z,996.91
2018-07-11T10:21:23.494Z,996.85
2018-07-11T10:22:33.613Z,996.92
2018-07-11T10:23:43.384Z,996.89
2018-07-11T10:24:53.413Z,996.94
2018-07-11T10:26:03.485Z,996.93
2018-07-11T10:27:13.510Z,996.91
2018-07-11T10:28:23.527Z,996.91
2018-07-11T10:29:33.562Z,996.92
2018-07-11T10:30:43.583Z,996.88
2018-07-11T10:31:53.668Z,996.92
2018-07-11T10:33:03.689Z,996.87
2018-07-11T10:34:13.732Z,996.91
2018-07-11T10:35:23.739Z,996.98
2018-07-11T10:36:33.558Z,996.88
2018-07-11T10:37:43.576Z,996.9
2018-07-11T10:38:53.580Z,996.93
2018-07-11T10:40:03.789Z,996.87
2018-07-11T10:41:13.790Z,996.86
2018-07-11T10:42:23.810Z,996.88
2018-07-11T10:43:33.814Z,996.9
2018-07-11T10:44:43.567Z,996.9
2018-07-11T10:45:53.727Z,996.87
2018-07-11T10:47:03.733Z,996.84
2018-07-11T10:48:13.759Z,996.79
2018-07-11T10:49:23.513Z,996.8
2018-07-11T10:50:33.606Z,996.79
2018-07-11T10:51:43.842Z,996.8
2018-07-11T10:52:53.869Z,996.82
2018-07-11T10:54:03.889Z,996.76
2018-07-11T10:55:13.903Z,996.77
2018-07-11T10:56:23.908Z,996.78
2018-07-11T10:57:33.717Z,996.76
2018-07-11T10:58:43.893Z,996.83
2018-07-11T10:59:53.895Z,996.88
2018-07-11T11:01:05.702Z,996.82
2018-07-11T11:02:16.560Z,996.82
2018-07-11T11:03:26.579Z,996.84
2018-07-11T11:04:36.336Z,996.76
2018-07-11T11:05:46.496Z,996.78
2018-07-11T11:06:56.562Z,996.8
2018-07-11T11:08:06.378Z,996.76
2018-07-11T11:09:16.285Z,996.69
2018-07-11T11:10:26.301Z,996.73
2018-07-11T11:11:36.128Z,996.7
2018-07-11T11:12:46.191Z,996.72
2018-07-11T11:13:56.204Z,996.7
2018-07-11T11:15:05.972Z,996.7
2018-07-11T11:16:15.975Z,996.72
2018-07-11T11:17:25.985Z,996.73
2018-07-11T11:18:36.012Z,996.65
2018-07-11T11:19:46.047Z,996.69
2018-07-11T11:20:56.058Z,996.68
2018-07-11T11:22:05.581Z,996.68
2018-07-11T11:23:15.348Z,996.74
2018-07-11T11:24:25.367Z,996.7
2018-07-11T11:25:35.450Z,996.68
2018-07-11T11:26:45.885Z,996.71
2018-07-11T11:27:55.905Z,996.67
2018-07-11T11:29:05.411Z,996.65
2018-07-11T11:30:15.443Z,996.65
2018-07-11T11:31:25.229Z,996.61
2018-07-11T11:32:35.005Z,996.65
2018-07-11T11:33:45.036Z,996.63
2018-07-11T11:34:54.808Z,996.57
2018-07-11T11:36:04.306Z,996.61
2018-07-11T11:37:14.325Z,996.64
2018-07-11T11:38:24.363Z,996.57
2018-07-11T11:39:33.864Z,996.55
2018-07-11T11:40:43.878Z,996.52
2018-07-11T11:41:54.061Z,996.49
2018-07-11T11:43:04.464Z,996.52
2018-07-11T11:44:14.224Z,996.52
2018-07-11T11:45:24.228Z,996.51
2018-07-11T11:46:33.988Z,996.47
2018-07-11T11:47:43.476Z,996.45
2018-07-11T11:48:53.497Z,996.48
2018-07-11T11:50:03.531Z,996.48
2018-07-11T11:51:13.544Z,996.46
2018-07-11T11:52:23.335Z,996.51
2018-07-11T11:53:33.337Z,996.47
2018-07-11T11:54:43.359Z,996.52
2018-07-11T11:55:53.401Z,996.51
2018-07-11T11:57:03.459Z,996.52
2018-07-11T11:58:13.492Z,996.51
2018-07-11T11:59:23.515Z,996.49
2018-07-11T12:00:33.528Z,996.49
2018-07-11T12:01:43.640Z,996.53
2018-07-11T12:02:53.689Z,996.55
2018-07-11T12:04:03.462Z,996.57
2018-07-11T12:05:13.008Z,996.53
2018-07-11T12:06:23.033Z,996.54
2018-07-11T12:07:33.056Z,996.53
2018-07-11T12:08:43.070Z,996.45
2018-07-11T12:09:53.088Z,996.48
2018-07-11T12:11:03.156Z,996.48
2018-07-11T12:12:13.271Z,996.46
2018-07-11T12:13:23.296Z,996.45
2018-07-11T12:14:33.360Z,996.43
2018-07-11T12:15:43.373Z,996.42
2018-07-11T12:16:53.391Z,996.41
2018-07-11T12:18:03.416Z,996.44
2018-07-11T12:19:13.447Z,996.37
2018-07-11T12:20:23.220Z,996.39
2018-07-11T12:21:33.408Z,996.43
2018-07-11T12:22:43.589Z,996.42
2018-07-11T12:23:53.601Z,996.42
2018-07-11T12:25:03.364Z,996.43
2018-07-11T12:26:13.139Z,996.41
2018-07-11T12:27:23.168Z,996.41
2018-07-11T12:28:33.201Z,996.37
2018-07-11T12:29:43.228Z,996.34
2018-07-11T12:30:53.297Z,996.36
2018-07-11T12:32:03.342Z,996.34
2018-07-11T12:33:13.355Z,996.37
2018-07-11T12:34:23.105Z,996.36
2018-07-11T12:35:33.125Z,996.35
2018-07-11T12:36:43.176Z,996.31
2018-07-11T12:37:53.190Z,996.3
2018-07-11T12:39:03.227Z,996.35
2018-07-11T12:40:13.059Z,996.39
2018-07-11T12:41:23.079Z,996.34
2018-07-11T12:42:33.089Z,996.43
2018-07-11T12:43:42.849Z,996.41
2018-07-11T12:44:52.604Z,996.45
2018-07-11T12:46:02.377Z,996.48
2018-07-11T12:47:12.394Z,996.46
2018-07-11T12:48:22.177Z,996.49
2018-07-11T12:49:32.206Z,996.52
2018-07-11T12:50:42.240Z,996.48
2018-07-11T12:51:52.301Z,996.53
2018-07-11T12:53:02.322Z,996.49
2018-07-11T12:54:12.339Z,996.53
2018-07-11T12:55:22.096Z,996.48
2018-07-11T12:56:31.852Z,996.52
2018-07-11T12:57:41.880Z,996.53
2018-07-11T12:58:51.635Z,996.53
2018-07-11T13:00:01.681Z,996.59
2018-07-11T13:01:11.721Z,996.57
2018-07-11T13:02:21.224Z,996.55
2018-07-11T13:03:31.259Z,996.67
2018-07-11T13:04:41.300Z,996.56
2018-07-11T13:05:51.096Z,996.57
2018-07-11T13:07:01.109Z,996.54
2018-07-11T13:08:11.140Z,996.56
2018-07-11T13:09:20.904Z,996.54
2018-07-11T13:10:30.663Z,996.62
2018-07-11T13:11:40.436Z,996.57
2018-07-11T13:12:50.472Z,996.59
2018-07-11T13:14:00.502Z,996.52
2018-07-11T13:15:10.275Z,996.5
2018-07-11T13:16:20.205Z,996.47
2018-07-11T13:17:30.585Z,996.45
2018-07-11T13:18:40.596Z,996.43
2018-07-11T13:19:50.614Z,996.46
2018-07-11T13:21:00.382Z,996.4
2018-07-11T13:22:10.152Z,996.39
2018-07-11T13:23:20.187Z,996.39
2018-07-11T13:24:30.260Z,996.41
2018-07-11T13:25:40.328Z,996.4
2018-07-11T13:26:50.427Z,996.39
2018-07-11T13:28:00.169Z,996.45
2018-07-11T13:29:09.973Z,996.42
2018-07-11T13:30:20.018Z,996.43
2018-07-11T13:31:30.040Z,996.5
2018-07-11T13:32:40.072Z,996.42
2018-07-11T13:33:50.100Z,996.47
2018-07-11T13:35:00.114Z,996.45
2018-07-11T13:36:10.136Z,996.48
2018-07-11T13:37:20.173Z,996.53
2018-07-11T13:38:29.993Z,996.52
2018-07-11T13:39:40.023Z,996.55
2018-07-11T13:40:49.781Z,996.55
2018-07-11T13:41:59.809Z,996.59
2018-07-11T13:43:09.839Z,996.6
2018-07-11T13:44:19.852Z,996.62
2018-07-11T13:45:29.633Z,996.6
2018-07-11T13:46:39.136Z,996.56
2018-07-11T13:47:49.158Z,996.6
2018-07-11T13:48:59.190Z,996.64
2018-07-11T13:50:09.209Z,996.65
2018-07-11T13:51:19.234Z,996.67
2018-07-11T13:52:29.236Z,996.62
2018-07-11T13:53:39.015Z,996.68
2018-07-11T13:54:48.510Z,996.69
2018-07-11T13:55:58.010Z,996.69
2018-07-11T13:57:07.559Z,996.66
2018-07-11T13:58:16.571Z,996.66
2018-07-11T13:59:26.339Z,996.64
2018-07-11T14:00:36.087Z,996.77
2018-07-11T14:01:46.105Z,996.72
2018-07-11T14:02:55.626Z,996.71
2018-07-11T14:04:05.650Z,996.73
2018-07-11T14:05:15.708Z,996.7
2018-07-11T14:06:25.724Z,996.65
2018-07-11T14:07:35.804Z,996.68
2018-07-11T14:08:45.984Z,996.71
2018-07-11T14:09:56.005Z,996.76
2018-07-11T14:11:06.017Z,996.74
2018-07-11T14:12:15.520Z,996.68
2018-07-11T14:13:25.560Z,996.77
2018-07-11T14:14:35.583Z,996.71
2018-07-11T14:15:45.350Z,996.66
2018-07-11T14:16:55.369Z,996.64
2018-07-11T14:18:05.411Z,996.62
2018-07-11T14:19:15.176Z,996.67
2018-07-11T14:20:25.328Z,996.68
2018-07-11T14:21:35.473Z,996.66
2018-07-11T14:22:45.245Z,996.7
2018-07-11T14:23:55.259Z,996.68
2018-07-11T14:25:05.302Z,996.69
2018-07-11T14:26:15.337Z,996.67
2018-07-11T14:27:25.364Z,996.76
2018-07-11T14:28:35.433Z,996.74
2018-07-11T14:29:45.480Z,996.76
2018-07-11T14:30:55.629Z,996.83
2018-07-11T14:32:05.652Z,996.79
2018-07-11T14:33:15.685Z,996.71
2018-07-11T14:34:25.714Z,996.76
2018-07-11T14:35:35.236Z,996.81
2018-07-11T14:36:45.022Z,996.82
2018-07-11T14:37:55.060Z,996.82
2018-07-11T14:39:05.083Z,996.84
2018-07-11T14:40:15.154Z,996.84
2018-07-11T14:41:25.165Z,996.81
2018-07-11T14:42:35.195Z,996.82
2018-07-11T14:43:45.200Z,996.84
2018-07-11T14:44:54.960Z,996.78
2018-07-11T14:46:05.016Z,996.82
2018-07-11T14:47:14.801Z,996.87
2018-07-11T14:48:24.822Z,996.83
2018-07-11T14:49:34.333Z,996.89
2018-07-11T14:50:44.354Z,996.93
2018-07-11T14:51:54.377Z,997.01
2018-07-11T14:53:04.395Z,996.96
2018-07-11T14:54:14.164Z,996.93
2018-07-11T14:55:24.159Z,996.95
2018-07-11T14:56:34.170Z,996.88
2018-07-11T14:57:44.201Z,996.91
2018-07-11T14:58:53.965Z,996.98
2018-07-11T15:00:03.969Z,996.99
2018-07-11T15:01:13.782Z,996.95
2018-07-11T15:02:23.810Z,996.92
2018-07-11T15:03:33.863Z,996.97
2018-07-11T15:04:43.900Z,996.94
2018-07-11T15:05:53.668Z,996.93
2018-07-11T15:07:03.430Z,996.98
2018-07-11T15:08:13.261Z,996.95